Location Waseca, MN, US

ob Bulldog5 252138Z AUTO 00000KT 18/18 A3001 RMK SLPNO 

2017.09.25 2138 UTC
Wind from the N ( degrees) at Calm MPH ( KT) gusting to  MPH (0 KT)
Visibility    Mile(s)
Temperature 64.6 F (18 C)
Dew Point 64.94 F (18 C)
Relative Humidity 100%
Pressure   30.014271839414 in. Hg (1016 hPa)
Rain   in.
Daily Rain  in.

Station Name  http://pantheonbulldogs.com/Weather.htm
Longitude, Latitude  -93.58, 43.99
Elevation 1050
Station URL http://pantheonbulldogs.com/Weather.htm
Software Type http://meteoware.com